Sunflower Gold — JD2460 — position and weather

sailwx.info

Track history (hours):
 
Tides and Currents Weather Stations Pressure Air Temp Water Temp Dewpoint Dewpoint Depression Visibility Wind Speed Wind Dir Waves Ship Positions

Sunflower Gold

Last reported at 2017-Apr-30 11:46 UTC. Time now 2017-Apr-30 16:58 UTC.
Position N 34°33' E 134°46'.

Length 166 m; draft 5.8 m.

Type: Passenger vessel. MMSI: 431000331.

Date/timePositionNaut miles runAvg speedWind from/ knotsBaromVisibWave heightAir tempDewpointWater temp
2017-Apr-30 11:46N 34°33' E 134°46'621.9
2017-Apr-30 11:30N 34°35' E 134°52'1019.1
2017-Apr-30 11:00N 34°36' E 135°04'1019.2
2017-Apr-30 10:31N 34°37' E 135°16'510.6
2017-Apr-30 10:00N 34°42' E 135°17'0 0.0
2017-Apr-30 09:22N 34°42' E 135°17'0 0.0
2017-Apr-30 08:46N 34°42' E 135°17'0 0.0
2017-Apr-30 08:28N 34°42' E 135°17'0 0.0
2017-Apr-30 07:52N 34°42' E 135°17'0 0.0
2017-Apr-30 07:22N 34°42' E 135°17'0 0.0
2017-Apr-30 06:58N 34°42' E 135°17'0 0.0
2017-Apr-30 06:22N 34°42' E 135°17'0 0.0
2017-Apr-30 05:52N 34°42' E 135°17'0 0.0
2017-Apr-30 05:28N 34°42' E 135°17'0 0.0
2017-Apr-30 04:52N 34°42' E 135°17'0 0.0
2017-Apr-30 04:28N 34°42' E 135°17'0 0.0
2017-Apr-30 03:58N 34°42' E 135°17'0 0.0
2017-Apr-30 03:28N 34°42' E 135°17'0 0.0
2017-Apr-30 02:58N 34°42' E 135°17'0 0.0
2017-Apr-30 02:28N 34°42' E 135°17'0 0.0
2017-Apr-30 01:58N 34°42' E 135°17'0 0.0
2017-Apr-30 01:28N 34°42' E 135°17'0 0.0
2017-Apr-30 00:58N 34°42' E 135°17'0 0.0
2017-Apr-30 00:22N 34°42' E 135°17'0 0.0
2017-Apr-29 23:58N 34°42' E 135°17'0 0.0
2017-Apr-29 23:28N 34°42' E 135°17'0 0.0
2017-Apr-29 22:58N 34°42' E 135°17'2 4.4
2017-Apr-29 22:30N 34°40' E 135°18'714.8
2017-Apr-29 22:00N 34°35' E 135°12'815.7
2017-Apr-29 21:30N 34°36' E 135°03'816.6
2017-Apr-29 21:00N 34°35' E 134°52'817.0
2017-Apr-29 20:30N 34°31' E 134°43'2 0.1
2017-Apr-28 12:28N 34°33' E 134°45'1022.0
2017-Apr-28 12:00N 34°37' E 134°57'1020.8
2017-Apr-28 11:30N 34°36' E 135°09'917.6
2017-Apr-28 11:01N 34°41' E 135°18'2 1.8
2017-Apr-28 10:07N 34°42' E 135°17'0 0.0
2017-Apr-28 09:55N 34°42' E 135°17'0 0.0
2017-Apr-28 09:25N 34°42' E 135°17'0 0.0
2017-Apr-28 08:55N 34°42' E 135°17'0 0.0
2017-Apr-28 08:25N 34°42' E 135°17'0 0.0
2017-Apr-28 07:55N 34°42' E 135°17'0 0.0
2017-Apr-28 07:25N 34°42' E 135°17'0 0.0
2017-Apr-28 06:55N 34°42' E 135°17'0 0.0
2017-Apr-28 06:13N 34°42' E 135°17'0 0.0
2017-Apr-28 05:49N 34°42' E 135°17'0 0.0
2017-Apr-28 05:19N 34°42' E 135°17'0 0.0
2017-Apr-28 04:43N 34°42' E 135°17'0 0.0
2017-Apr-28 04:19N 34°42' E 135°17'0 0.0
2017-Apr-28 03:55N 34°42' E 135°17'0 0.0
2017-Apr-28 03:25N 34°42' E 135°17'0 0.0
2017-Apr-28 02:55N 34°42' E 135°17'0 0.0
2017-Apr-28 02:19N 34°42' E 135°17'0 0.0
2017-Apr-28 01:49N 34°42' E 135°17'0 0.0
2017-Apr-28 01:25N 34°42' E 135°17'0 0.0
2017-Apr-28 00:43N 34°42' E 135°17'0 0.0
2017-Apr-28 00:13N 34°42' E 135°17'0 0.0
2017-Apr-27 23:55N 34°42' E 135°17'0 0.0
2017-Apr-27 23:25N 34°42' E 135°17'0 0.0
2017-Apr-27 22:43N 34°42' E 135°17'0 0.0
2017-Apr-27 22:25N 34°42' E 135°17'0 0.0
2017-Apr-27 21:49N 34°42' E 135°17'0 0.0
2017-Apr-27 21:30N 34°42' E 135°17'5 9.9
2017-Apr-27 21:00N 34°37' E 135°17'817.0
2017-Apr-27 20:30N 34°35' E 135°07'918.2
2017-Apr-27 20:00N 34°35' E 134°56'4 0.1
2017-Apr-26 11:20N 34°35' E 134°51'822.5
2017-Apr-26 11:00N 34°38' E 134°60'1121.4
2017-Apr-26 10:30N 34°36' E 135°12'713.2
2017-Apr-26 10:00N 34°42' E 135°17'0 0.0
2017-Apr-26 09:27N 34°42' E 135°17'0 0.0
2017-Apr-26 08:57N 34°42' E 135°17'0 0.0
2017-Apr-26 08:27N 34°42' E 135°17'0 0.0
2017-Apr-26 07:45N 34°42' E 135°17'0 0.0
2017-Apr-26 07:15N 34°42' E 135°17'0 0.0
2017-Apr-26 06:57N 34°42' E 135°17'0 0.0
2017-Apr-26 06:27N 34°42' E 135°17'0 0.0
2017-Apr-26 05:57N 34°42' E 135°17'0 0.0
2017-Apr-26 05:27N 34°42' E 135°17'0 0.0
2017-Apr-26 04:57N 34°42' E 135°17'0 0.0
2017-Apr-26 04:21N 34°42' E 135°17'0 0.0
2017-Apr-26 03:51N 34°42' E 135°17'0 0.0
2017-Apr-26 03:21N 34°42' E 135°17'0 0.0
2017-Apr-26 02:57N 34°42' E 135°17'0 0.0
2017-Apr-26 02:15N 34°42' E 135°17'0 0.0
2017-Apr-26 01:57N 34°42' E 135°17'0 0.0
2017-Apr-26 01:27N 34°42' E 135°17'0 0.0
2017-Apr-26 00:57N 34°42' E 135°17'0 0.0
2017-Apr-26 00:27N 34°42' E 135°17'0 0.0
2017-Apr-25 23:51N 34°42' E 135°17'0 0.0
2017-Apr-25 23:21N 34°42' E 135°17'0 0.0
2017-Apr-25 22:57N 34°42' E 135°17'0 0.0
2017-Apr-25 22:27N 34°42' E 135°17'0 0.0
2017-Apr-25 21:57N 34°42' E 135°17'0 0.0
2017-Apr-25 21:30N 34°42' E 135°17'510.6
2017-Apr-25 21:00N 34°37' E 135°16'1121.1
2017-Apr-25 20:30N 34°36' E 135°03'1120.1
2017-Apr-25 19:59N 34°34' E 134°51'2 0.1
2017-Apr-24 11:24N 34°35' E 134°52'820.8
2017-Apr-24 11:00N 34°37' E 135°02'1019.8
2017-Apr-24 10:30N 34°36' E 135°14'612.1
2017-Apr-24 10:01N 34°42' E 135°17'0 0.0
2017-Apr-24 09:13N 34°42' E 135°17'0 0.0
2017-Apr-24 08:55N 34°42' E 135°17'0 0.0
2017-Apr-24 08:25N 34°42' E 135°17'0 0.0
2017-Apr-24 07:49N 34°42' E 135°17'0 0.0
2017-Apr-24 07:25N 34°42' E 135°17'0 0.0
2017-Apr-24 06:55N 34°42' E 135°17'0 0.0
2017-Apr-24 06:25N 34°42' E 135°17'0 0.0
2017-Apr-24 05:55N 34°42' E 135°17'0 0.0
2017-Apr-24 05:19N 34°42' E 135°17'0 0.0
2017-Apr-24 04:55N 34°42' E 135°17'0 0.0
2017-Apr-24 04:19N 34°42' E 135°17'0 0.0
2017-Apr-24 03:49N 34°42' E 135°17'0 0.0
2017-Apr-24 03:25N 34°42' E 135°17'0 0.0
2017-Apr-24 02:55N 34°42' E 135°17'0 0.0
2017-Apr-24 02:25N 34°42' E 135°17'0 0.0
2017-Apr-24 01:55N 34°42' E 135°17'0 0.0
2017-Apr-24 01:25N 34°42' E 135°17'0 0.0
2017-Apr-24 00:49N 34°42' E 135°17'0 0.0
2017-Apr-24 00:25N 34°42' E 135°17'0 0.0
2017-Apr-23 23:55N 34°42' E 135°17'0 0.0
2017-Apr-23 23:25N 34°42' E 135°17'0 0.0
2017-Apr-23 22:55N 34°42' E 135°17'0 0.0
2017-Apr-23 22:25N 34°42' E 135°17'0 0.0
2017-Apr-23 21:55N 34°42' E 135°17'0 0.2
2017-Apr-23 21:30N 34°42' E 135°17'612.4
2017-Apr-23 21:01N 34°36' E 135°15'1020.1
2017-Apr-23 20:30N 34°36' E 135°03'817.0
2017-Apr-23 20:00N 34°34' E 134°53'1 0.0
2017-Apr-22 12:10N 34°36' E 134°53'320.6
2017-Apr-22 12:00N 34°37' E 134°57'1019.2
2017-Apr-22 11:30N 34°36' E 135°09'917.5
2017-Apr-22 11:00N 34°41' E 135°18'2 2.9
2017-Apr-22 10:29N 34°42' E 135°17'0 0.0
2017-Apr-22 09:58N 34°42' E 135°17'0 0.0
2017-Apr-22 09:28N 34°42' E 135°17'0 0.0
2017-Apr-22 08:58N 34°42' E 135°17'0 0.0
2017-Apr-22 08:16N 34°42' E 135°17'0 0.0
2017-Apr-22 07:46N 34°42' E 135°17'0 0.0
2017-Apr-22 07:04N 34°42' E 135°17'0 0.0
2017-Apr-22 06:58N 34°42' E 135°17'0 0.0
2017-Apr-22 06:28N 34°42' E 135°17'0 0.0
2017-Apr-22 05:58N 34°42' E 135°17'0 0.0
2017-Apr-22 05:28N 34°42' E 135°17'0 0.0
2017-Apr-22 04:58N 34°42' E 135°17'0 0.0
2017-Apr-22 04:28N 34°42' E 135°17'0 0.0
2017-Apr-22 03:58N 34°42' E 135°17'0 0.0
2017-Apr-22 03:22N 34°42' E 135°17'0 0.0
2017-Apr-22 02:58N 34°42' E 135°17'0 0.0
2017-Apr-22 02:22N 34°42' E 135°17'0 0.0
2017-Apr-22 01:58N 34°42' E 135°17'0 0.0
2017-Apr-22 01:22N 34°42' E 135°17'0 0.0
2017-Apr-22 00:46N 34°42' E 135°17'0 0.0
2017-Apr-22 00:28N 34°42' E 135°17'0 0.0
2017-Apr-21 23:58N 34°42' E 135°17'0 0.0
2017-Apr-21 23:28N 34°42' E 135°17'0 0.0
2017-Apr-21 22:58N 34°42' E 135°17'1 2.3
2017-Apr-21 22:30N 34°41' E 135°18'815.0
2017-Apr-21 22:00N 34°35' E 135°12'917.5
2017-Apr-21 21:30N 34°36' E 135°02'816.8
2017-Apr-21 21:00N 34°35' E 134°52'  
Track history (hours):
 
Tides and Currents Weather Stations Pressure Air Temp Water Temp Dewpoint Dewpoint Depression Visibility Wind Speed Wind Dir Waves Ship Positions

Sunflower Gold

Last reported at 2017-Apr-30 11:46 UTC. Time now 2017-Apr-30 16:58 UTC.
Position N 34°33' E 134°46'.

Length 166 m; draft 5.8 m.

Type: Passenger vessel. MMSI: 431000331.

Date/timePositionNaut miles runAvg speedWind from/ knotsBaromVisibWave heightAir tempDewpointWater temp
2017-Apr-30 11:46N 34°33' E 134°46'621.9
2017-Apr-30 11:30N 34°35' E 134°52'1019.1
2017-Apr-30 11:00N 34°36' E 135°04'1019.2
2017-Apr-30 10:31N 34°37' E 135°16'510.6
2017-Apr-30 10:00N 34°42' E 135°17'0 0.0
2017-Apr-30 09:22N 34°42' E 135°17'0 0.0
2017-Apr-30 08:46N 34°42' E 135°17'0 0.0
2017-Apr-30 08:28N 34°42' E 135°17'0 0.0
2017-Apr-30 07:52N 34°42' E 135°17'0 0.0
2017-Apr-30 07:22N 34°42' E 135°17'0 0.0
2017-Apr-30 06:58N 34°42' E 135°17'0 0.0
2017-Apr-30 06:22N 34°42' E 135°17'0 0.0
2017-Apr-30 05:52N 34°42' E 135°17'0 0.0
2017-Apr-30 05:28N 34°42' E 135°17'0 0.0
2017-Apr-30 04:52N 34°42' E 135°17'0 0.0
2017-Apr-30 04:28N 34°42' E 135°17'0 0.0
2017-Apr-30 03:58N 34°42' E 135°17'0 0.0
2017-Apr-30 03:28N 34°42' E 135°17'0 0.0
2017-Apr-30 02:58N 34°42' E 135°17'0 0.0
2017-Apr-30 02:28N 34°42' E 135°17'0 0.0
2017-Apr-30 01:58N 34°42' E 135°17'0 0.0
2017-Apr-30 01:28N 34°42' E 135°17'0 0.0
2017-Apr-30 00:58N 34°42' E 135°17'0 0.0
2017-Apr-30 00:22N 34°42' E 135°17'0 0.0
2017-Apr-29 23:58N 34°42' E 135°17'0 0.0
2017-Apr-29 23:28N 34°42' E 135°17'0 0.0
2017-Apr-29 22:58N 34°42' E 135°17'2 4.4
2017-Apr-29 22:30N 34°40' E 135°18'714.8
2017-Apr-29 22:00N 34°35' E 135°12'815.7
2017-Apr-29 21:30N 34°36' E 135°03'816.6
2017-Apr-29 21:00N 34°35' E 134°52'817.0
2017-Apr-29 20:30N 34°31' E 134°43'2 0.1
2017-Apr-28 12:28N 34°33' E 134°45'1022.0
2017-Apr-28 12:00N 34°37' E 134°57'1020.8
2017-Apr-28 11:30N 34°36' E 135°09'917.6
2017-Apr-28 11:01N 34°41' E 135°18'2 1.8
2017-Apr-28 10:07N 34°42' E 135°17'0 0.0
2017-Apr-28 09:55N 34°42' E 135°17'0 0.0
2017-Apr-28 09:25N 34°42' E 135°17'0 0.0
2017-Apr-28 08:55N 34°42' E 135°17'0 0.0
2017-Apr-28 08:25N 34°42' E 135°17'0 0.0
2017-Apr-28 07:55N 34°42' E 135°17'0 0.0
2017-Apr-28 07:25N 34°42' E 135°17'0 0.0
2017-Apr-28 06:55N 34°42' E 135°17'0 0.0
2017-Apr-28 06:13N 34°42' E 135°17'0 0.0
2017-Apr-28 05:49N 34°42' E 135°17'0 0.0
2017-Apr-28 05:19N 34°42' E 135°17'0 0.0
2017-Apr-28 04:43N 34°42' E 135°17'0 0.0
2017-Apr-28 04:19N 34°42' E 135°17'0 0.0
2017-Apr-28 03:55N 34°42' E 135°17'0 0.0
2017-Apr-28 03:25N 34°42' E 135°17'0 0.0
2017-Apr-28 02:55N 34°42' E 135°17'0 0.0
2017-Apr-28 02:19N 34°42' E 135°17'0 0.0
2017-Apr-28 01:49N 34°42' E 135°17'0 0.0
2017-Apr-28 01:25N 34°42' E 135°17'0 0.0
2017-Apr-28 00:43N 34°42' E 135°17'0 0.0
2017-Apr-28 00:13N 34°42' E 135°17'0 0.0
2017-Apr-27 23:55N 34°42' E 135°17'0 0.0
2017-Apr-27 23:25N 34°42' E 135°17'0 0.0
2017-Apr-27 22:43N 34°42' E 135°17'0 0.0
2017-Apr-27 22:25N 34°42' E 135°17'0 0.0
2017-Apr-27 21:49N 34°42' E 135°17'0 0.0
2017-Apr-27 21:30N 34°42' E 135°17'5 9.9
2017-Apr-27 21:00N 34°37' E 135°17'817.0
2017-Apr-27 20:30N 34°35' E 135°07'918.2
2017-Apr-27 20:00N 34°35' E 134°56'4 0.1
2017-Apr-26 11:20N 34°35' E 134°51'822.5
2017-Apr-26 11:00N 34°38' E 134°60'1121.4
2017-Apr-26 10:30N 34°36' E 135°12'713.2
2017-Apr-26 10:00N 34°42' E 135°17'0 0.0
2017-Apr-26 09:27N 34°42' E 135°17'0 0.0
2017-Apr-26 08:57N 34°42' E 135°17'0 0.0
2017-Apr-26 08:27N 34°42' E 135°17'0 0.0
2017-Apr-26 07:45N 34°42' E 135°17'0 0.0
2017-Apr-26 07:15N 34°42' E 135°17'0 0.0
2017-Apr-26 06:57N 34°42' E 135°17'0 0.0
2017-Apr-26 06:27N 34°42' E 135°17'0 0.0
2017-Apr-26 05:57N 34°42' E 135°17'0 0.0
2017-Apr-26 05:27N 34°42' E 135°17'0 0.0
2017-Apr-26 04:57N 34°42' E 135°17'0 0.0
2017-Apr-26 04:21N 34°42' E 135°17'0 0.0
2017-Apr-26 03:51N 34°42' E 135°17'0 0.0
2017-Apr-26 03:21N 34°42' E 135°17'0 0.0
2017-Apr-26 02:57N 34°42' E 135°17'0 0.0
2017-Apr-26 02:15N 34°42' E 135°17'0 0.0
2017-Apr-26 01:57N 34°42' E 135°17'0 0.0
2017-Apr-26 01:27N 34°42' E 135°17'0 0.0
2017-Apr-26 00:57N 34°42' E 135°17'0 0.0
2017-Apr-26 00:27N 34°42' E 135°17'0 0.0
2017-Apr-25 23:51N 34°42' E 135°17'0 0.0
2017-Apr-25 23:21N 34°42' E 135°17'0 0.0
2017-Apr-25 22:57N 34°42' E 135°17'0 0.0
2017-Apr-25 22:27N 34°42' E 135°17'0 0.0
2017-Apr-25 21:57N 34°42' E 135°17'0 0.0
2017-Apr-25 21:30N 34°42' E 135°17'510.6
2017-Apr-25 21:00N 34°37' E 135°16'1121.1
2017-Apr-25 20:30N 34°36' E 135°03'1120.1
2017-Apr-25 19:59N 34°34' E 134°51'2 0.1
2017-Apr-24 11:24N 34°35' E 134°52'820.8
2017-Apr-24 11:00N 34°37' E 135°02'1019.8
2017-Apr-24 10:30N 34°36' E 135°14'612.1
2017-Apr-24 10:01N 34°42' E 135°17'0 0.0
2017-Apr-24 09:13N 34°42' E 135°17'0 0.0
2017-Apr-24 08:55N 34°42' E 135°17'0 0.0
2017-Apr-24 08:25N 34°42' E 135°17'0 0.0
2017-Apr-24 07:49N 34°42' E 135°17'0 0.0
2017-Apr-24 07:25N 34°42' E 135°17'0 0.0
2017-Apr-24 06:55N 34°42' E 135°17'0 0.0
2017-Apr-24 06:25N 34°42' E 135°17'0 0.0
2017-Apr-24 05:55N 34°42' E 135°17'0 0.0
2017-Apr-24 05:19N 34°42' E 135°17'0 0.0
2017-Apr-24 04:55N 34°42' E 135°17'0 0.0
2017-Apr-24 04:19N 34°42' E 135°17'0 0.0
2017-Apr-24 03:49N 34°42' E 135°17'0 0.0
2017-Apr-24 03:25N 34°42' E 135°17'0 0.0
2017-Apr-24 02:55N 34°42' E 135°17'0 0.0
2017-Apr-24 02:25N 34°42' E 135°17'0 0.0
2017-Apr-24 01:55N 34°42' E 135°17'0 0.0
2017-Apr-24 01:25N 34°42' E 135°17'0 0.0
2017-Apr-24 00:49N 34°42' E 135°17'0 0.0
2017-Apr-24 00:25N 34°42' E 135°17'0 0.0
2017-Apr-23 23:55N 34°42' E 135°17'0 0.0
2017-Apr-23 23:25N 34°42' E 135°17'0 0.0
2017-Apr-23 22:55N 34°42' E 135°17'0 0.0
2017-Apr-23 22:25N 34°42' E 135°17'0 0.0
2017-Apr-23 21:55N 34°42' E 135°17'0 0.2
2017-Apr-23 21:30N 34°42' E 135°17'612.4
2017-Apr-23 21:01N 34°36' E 135°15'1020.1
2017-Apr-23 20:30N 34°36' E 135°03'817.0
2017-Apr-23 20:00N 34°34' E 134°53'1 0.0
2017-Apr-22 12:10N 34°36' E 134°53'320.6
2017-Apr-22 12:00N 34°37' E 134°57'1019.2
2017-Apr-22 11:30N 34°36' E 135°09'917.5
2017-Apr-22 11:00N 34°41' E 135°18'2 2.9
2017-Apr-22 10:29N 34°42' E 135°17'0 0.0
2017-Apr-22 09:58N 34°42' E 135°17'0 0.0
2017-Apr-22 09:28N 34°42' E 135°17'0 0.0
2017-Apr-22 08:58N 34°42' E 135°17'0 0.0
2017-Apr-22 08:16N 34°42' E 135°17'0 0.0
2017-Apr-22 07:46N 34°42' E 135°17'0 0.0
2017-Apr-22 07:04N 34°42' E 135°17'0 0.0
2017-Apr-22 06:58N 34°42' E 135°17'0 0.0
2017-Apr-22 06:28N 34°42' E 135°17'0 0.0
2017-Apr-22 05:58N 34°42' E 135°17'0 0.0
2017-Apr-22 05:28N 34°42' E 135°17'0 0.0
2017-Apr-22 04:58N 34°42' E 135°17'0 0.0
2017-Apr-22 04:28N 34°42' E 135°17'0 0.0
2017-Apr-22 03:58N 34°42' E 135°17'0 0.0
2017-Apr-22 03:22N 34°42' E 135°17'0 0.0
2017-Apr-22 02:58N 34°42' E 135°17'0 0.0
2017-Apr-22 02:22N 34°42' E 135°17'0 0.0
2017-Apr-22 01:58N 34°42' E 135°17'0 0.0
2017-Apr-22 01:22N 34°42' E 135°17'0 0.0
2017-Apr-22 00:46N 34°42' E 135°17'0 0.0
2017-Apr-22 00:28N 34°42' E 135°17'0 0.0
2017-Apr-21 23:58N 34°42' E 135°17'0 0.0
2017-Apr-21 23:28N 34°42' E 135°17'0 0.0
2017-Apr-21 22:58N 34°42' E 135°17'1 2.3
2017-Apr-21 22:30N 34°41' E 135°18'815.0
2017-Apr-21 22:00N 34°35' E 135°12'917.5
2017-Apr-21 21:30N 34°36' E 135°02'816.8
2017-Apr-21 21:00N 34°35' E 134°52'  

Dump ship's entire track history